Time;durP1;ratioP1;P1;durP2;ratioP2;P2;SDS_P1;SDS_P2;PMS_P1;PMS_P2;Temp;Humidity;BMP_temperature;BMP_pressure;BME280_temperature;BME280_humidity;BME280_pressure;Samples;Min_cycle;Max_cycle;Signal;HPM_P1;HPM_P2
2023/07/13 00:01:15;;;;;;;24.10;10.00;;;;;;;28.19;56.06;98490.47;67832;1278;1015843;-66
2023/07/13 00:04:18;;;;;;;23.30;9.50;;;;;;;27.64;58.24;98500.77;67807;1278;1016161;-66
2023/07/13 00:07:20;;;;;;;28.70;9.90;;;;;;;28.15;56.34;98499.81;67814;1278;1016263;-65
2023/07/13 00:10:23;;;;;;;24.40;8.90;;;;;;;28.68;54.38;98493.59;67816;1278;1016158;-67
2023/07/13 00:13:25;;;;;;;22.20;9.40;;;;;;;27.70;58.46;98496.65;67831;1278;1016470;-67
2023/07/13 00:16:28;;;;;;;26.10;8.80;;;;;;;27.86;57.80;98497.29;67760;1278;1016261;-67
2023/07/13 00:19:30;;;;;;;27.50;9.50;;;;;;;28.45;54.98;98494.94;67775;1278;1016501;-63
2023/07/13 00:22:33;;;;;;;24.70;9.30;;;;;;;28.76;54.00;98485.52;67838;1278;1016259;-65
2023/07/13 00:25:35;;;;;;;26.40;9.60;;;;;;;28.90;53.32;98480.98;67780;1278;1016476;-67
2023/07/13 00:28:38;;;;;;;27.20;9.20;;;;;;;29.00;53.16;98480.60;67794;1278;1016494;-68
2023/07/13 00:31:40;;;;;;;23.40;9.00;;;;;;;28.96;53.11;98474.69;67804;1278;1016870;-66
2023/07/13 00:34:43;;;;;;;27.90;8.80;;;;;;;28.80;53.30;98472.71;67820;1278;1016426;-66
2023/07/13 00:37:45;;;;;;;26.10;9.30;;;;;;;28.75;53.49;98468.67;67804;1278;1016389;-66
2023/07/13 00:40:48;;;;;;;27.00;9.20;;;;;;;28.73;53.49;98467.05;67806;1278;1016658;-67
2023/07/13 00:43:50;;;;;;;21.70;8.60;;;;;;;28.79;53.45;98474.04;67787;1278;1019793;-67
2023/07/13 00:46:52;;;;;;;24.50;8.20;;;;;;;28.84;53.15;98472.10;67765;1278;1016327;-68
2023/07/13 00:49:55;;;;;;;26.40;8.50;;;;;;;29.07;52.36;98471.71;67801;1278;1016218;-66
2023/07/13 00:52:58;;;;;;;23.90;8.80;;;;;;;29.04;52.71;98477.41;67830;1278;1016404;-67
2023/07/13 00:56:00;;;;;;;26.90;8.50;;;;;;;28.96;53.09;98486.60;67788;1278;1016101;-67
2023/07/13 00:59:03;;;;;;;26.40;8.70;;;;;;;28.80;53.64;98492.86;67816;1278;1016493;-67
2023/07/13 01:02:05;;;;;;;31.20;8.90;;;;;;;28.26;55.96;98496.24;67794;1278;1016475;-67
2023/07/13 01:05:08;;;;;;;23.90;10.00;;;;;;;27.91;58.12;98496.11;67816;1278;1018678;-67
2023/07/13 01:08:10;;;;;;;23.90;9.60;;;;;;;28.04;57.78;98488.86;67775;1278;1016426;-64
2023/07/13 01:11:13;;;;;;;41.20;11.00;;;;;;;28.22;56.86;98483.50;67807;1278;1016256;-64
2023/07/13 01:14:16;;;;;;;26.60;9.10;;;;;;;28.03;57.20;98487.25;67826;1278;1016435;-67
2023/07/13 01:17:18;;;;;;;26.80;9.40;;;;;;;27.70;58.98;98492.75;67768;1278;1016396;-66
2023/07/13 01:20:21;;;;;;;26.10;10.30;;;;;;;27.58;58.96;98489.55;67799;1278;1016429;-64
2023/07/13 01:23:24;;;;;;;36.60;10.70;;;;;;;27.36;59.61;98491.94;67813;1278;1016325;-65
2023/07/13 01:26:27;;;;;;;25.50;9.00;;;;;;;27.74;57.84;98485.40;67790;1278;1016133;-65
2023/07/13 01:29:29;;;;;;;29.70;9.30;;;;;;;28.41;55.34;98485.34;67813;1278;1016085;-65
2023/07/13 01:32:32;;;;;;;25.70;8.60;;;;;;;28.08;56.76;98487.75;67809;1278;1016671;-66
2023/07/13 01:35:35;;;;;;;23.20;9.10;;;;;;;27.50;59.55;98488.50;67756;1278;1016302;-66
2023/07/13 01:38:37;;;;;;;24.40;8.80;;;;;;;27.71;59.23;98487.52;67809;1278;1019118;-67
2023/07/13 01:41:39;;;;;;;26.00;9.40;;;;;;;28.21;57.56;98493.36;67806;1278;1016466;-66
2023/07/13 01:44:42;;;;;;;26.00;8.70;;;;;;;28.12;57.84;98495.67;67808;1261;1018106;-66
2023/07/13 01:47:44;;;;;;;24.00;8.70;;;;;;;28.29;57.44;98491.95;67769;1278;1016181;-67
2023/07/13 01:50:47;;;;;;;25.70;8.20;;;;;;;28.74;55.87;98500.14;67768;1278;1016593;-67
2023/07/13 01:53:49;;;;;;;23.20;8.30;;;;;;;29.11;54.43;98505.00;67788;1278;1015985;-66
2023/07/13 01:56:52;;;;;;;23.80;8.20;;;;;;;29.38;53.54;98508.85;67812;1278;1016320;-67
2023/07/13 01:59:54;;;;;;;22.00;8.30;;;;;;;29.45;53.21;98506.94;67785;1278;1016031;-67
2023/07/13 02:02:57;;;;;;;22.80;8.10;;;;;;;29.30;53.94;98509.49;67776;1278;1016559;-66
2023/07/13 02:05:59;;;;;;;22.30;7.80;;;;;;;28.61;56.78;98505.44;67775;1278;1016012;-64
2023/07/13 02:09:02;;;;;;;23.50;7.70;;;;;;;28.84;56.41;98503.77;67821;1278;1016250;-65
2023/07/13 02:12:04;;;;;;;20.80;7.50;;;;;;;28.48;57.86;98507.04;67801;1278;1016317;-63
2023/07/13 02:15:06;;;;;;;22.90;7.80;;;;;;;28.41;58.16;98508.20;67760;1278;1016481;-67
2023/07/13 02:18:09;;;;;;;22.40;7.80;;;;;;;28.39;58.76;98501.81;67773;1278;1016448;-64
2023/07/13 02:21:11;;;;;;;19.50;7.50;;;;;;;29.13;55.65;98499.30;67765;1278;1016484;-65
2023/07/13 02:24:17;;;;;;;21.30;7.90;;;;;;;29.37;54.52;98487.99;67781;1278;1016309;-65
2023/07/13 02:27:19;;;;;;;22.20;7.90;;;;;;;29.55;54.00;98480.81;67791;1278;1015972;-67
2023/07/13 02:30:24;;;;;;;24.90;8.10;;;;;;;30.05;52.60;98478.68;67800;1278;1016375;-66
2023/07/13 02:33:27;;;;;;;21.20;7.90;;;;;;;30.26;51.79;98477.45;67717;1278;1016800;-66
2023/07/13 02:36:29;;;;;;;22.90;9.60;;;;;;;30.08;51.83;98484.81;67806;1278;1016391;-67
2023/07/13 02:39:32;;;;;;;21.90;9.20;;;;;;;29.72;53.51;98490.64;67754;1278;1016174;-64
2023/07/13 02:42:35;;;;;;;22.80;9.70;;;;;;;29.68;53.09;98497.21;67777;1278;1016224;-65
2023/07/13 02:45:37;;;;;;;21.20;8.60;;;;;;;29.68;52.78;98504.39;67758;1278;1016327;-67
2023/07/13 02:48:40;;;;;;;22.60;8.20;;;;;;;28.54;57.10;98507.60;67768;1278;1016327;-67
2023/07/13 02:51:43;;;;;;;24.00;8.30;;;;;;;28.02;60.15;98505.94;67764;1278;1016255;-65
2023/07/13 02:54:45;;;;;;;20.90;8.70;;;;;;;27.86;60.39;98506.33;67793;1278;1016826;-64
2023/07/13 02:57:48;;;;;;;21.30;8.00;;;;;;;27.87;60.56;98503.34;67785;1278;1016365;-64
2023/07/13 03:00:51;;;;;;;29.00;8.20;;;;;;;27.64;61.27;98499.06;67758;1278;1016266;-66
2023/07/13 03:03:53;;;;;;;29.20;8.20;;;;;;;27.90;60.58;98500.35;67730;1278;1016404;-66
2023/07/13 03:06:57;;;;;;;22.60;7.80;;;;;;;27.82;61.29;98503.31;67764;1278;1017969;-64
2023/07/13 03:10:00;;;;;;;22.20;8.40;;;;;;;27.87;61.77;98490.91;67770;1278;1016174;-67
2023/07/13 03:13:02;;;;;;;27.00;8.10;;;;;;;28.30;60.05;98482.56;67766;1278;1016527;-65
2023/07/13 03:16:05;;;;;;;22.50;7.90;;;;;;;28.77;57.90;98472.59;67731;1278;1016208;-66
2023/07/13 03:19:08;;;;;;;21.50;7.80;;;;;;;29.33;56.07;98473.61;67773;1278;1016390;-65
2023/07/13 03:22:10;;;;;;;22.50;8.20;;;;;;;29.48;55.35;98468.22;67777;1256;1016457;-67
2023/07/13 03:25:12;;;;;;;20.70;8.40;;;;;;;29.65;54.94;98466.23;67767;1278;1016317;-65
2023/07/13 03:28:15;;;;;;;25.10;8.50;;;;;;;29.70;54.81;98462.06;67741;1278;1016440;-65
2023/07/13 03:31:18;;;;;;;23.40;9.00;;;;;;;29.64;55.31;98462.36;67799;1278;1016387;-64
2023/07/13 03:34:20;;;;;;;22.60;8.10;;;;;;;29.50;55.69;98465.29;67805;1278;1016110;-66
2023/07/13 03:37:23;;;;;;;22.60;8.60;;;;;;;29.37;55.85;98471.88;67763;1278;1016446;-64
2023/07/13 03:40:26;;;;;;;71.30;10.40;;;;;;;29.55;55.24;98467.69;67780;1278;1016271;-61
2023/07/13 03:43:29;;;;;;;54.10;10.30;;;;;;;29.65;54.87;98465.11;67739;1278;1017863;-66
2023/07/13 03:46:33;;;;;;;21.90;8.30;;;;;;;29.80;54.60;98472.29;67791;1278;1016060;-66
2023/07/13 03:49:36;;;;;;;23.60;8.20;;;;;;;29.92;54.35;98469.58;67740;1278;1016354;-66
2023/07/13 03:52:38;;;;;;;22.30;8.40;;;;;;;29.81;54.42;98484.39;67812;1278;1016435;-66
2023/07/13 03:55:41;;;;;;;20.40;7.40;;;;;;;29.60;54.66;98482.21;67789;1278;1016126;-66
2023/07/13 03:58:44;;;;;;;20.10;7.40;;;;;;;29.46;54.93;98481.38;67764;1278;1016163;-64
2023/07/13 04:01:46;;;;;;;22.90;8.00;;;;;;;29.48;55.26;98480.80;67116;1278;1889420;-66
2023/07/13 04:04:49;;;;;;;25.20;8.80;;;;;;;29.56;55.05;98485.05;67759;1278;1016261;-66
2023/07/13 04:07:51;;;;;;;23.50;8.80;;;;;;;29.88;54.45;98492.33;67724;1278;1016465;-68
2023/07/13 04:10:54;;;;;;;21.10;8.40;;;;;;;29.97;54.35;98502.73;67770;1278;1016504;-67
2023/07/13 04:13:56;;;;;;;22.80;8.30;;;;;;;30.05;53.77;98511.60;67809;1278;1016223;-66
2023/07/13 04:16:59;;;;;;;23.90;9.10;;;;;;;29.56;55.34;98516.38;67746;1278;1016542;-66
2023/07/13 04:20:02;;;;;;;26.20;8.90;;;;;;;29.00;57.44;98529.51;67723;1278;1016272;-66
2023/07/13 04:23:04;;;;;;;20.20;7.80;;;;;;;28.99;57.64;98542.42;67784;1278;1016297;-66
2023/07/13 04:26:07;;;;;;;20.00;7.30;;;;;;;28.76;58.19;98545.17;67791;1278;1018774;-65
2023/07/13 04:29:09;;;;;;;19.60;6.80;;;;;;;28.76;57.08;98546.80;67726;1278;1016304;-65
2023/07/13 04:32:12;;;;;;;17.80;6.40;;;;;;;28.16;57.44;98549.63;67748;1278;1016322;-66
2023/07/13 04:35:15;;;;;;;17.90;5.20;;;;;;;27.89;57.30;98553.54;67738;1275;1017336;-64
2023/07/13 04:38:18;;;;;;;16.20;4.40;;;;;;;27.70;56.58;98572.48;67749;1278;1016235;-64
2023/07/13 04:41:20;;;;;;;17.80;5.20;;;;;;;27.26;57.51;98577.83;67736;1278;1016352;-67
2023/07/13 04:44:23;;;;;;;18.40;5.40;;;;;;;27.07;58.95;98575.63;67754;1275;1016270;-65
2023/07/13 04:47:25;;;;;;;16.20;4.50;;;;;;;26.80;58.56;98581.98;67779;1278;1016553;-65
2023/07/13 04:50:28;;;;;;;17.70;4.60;;;;;;;26.45;59.58;98571.85;67669;1278;1016238;-66
2023/07/13 04:53:30;;;;;;;16.80;4.80;;;;;;;26.10;60.03;98565.67;67651;1278;1017067;-66
2023/07/13 04:56:33;;;;;;;17.80;4.70;;;;;;;26.09;60.68;98574.48;67724;1278;1016438;-66
2023/07/13 04:59:35;;;;;;;15.60;4.80;;;;;;;26.35;59.95;98571.23;67759;1278;1015978;-65
2023/07/13 05:02:37;;;;;;;18.80;4.80;;;;;;;26.53;59.36;98570.09;67793;1278;1016350;-65
2023/07/13 05:05:40;;;;;;;15.50;5.00;;;;;;;26.66;59.34;98579.12;67794;1278;1016390;-65
2023/07/13 05:08:42;;;;;;;16.30;4.20;;;;;;;26.80;58.99;98592.27;67762;1278;1016522;-65
2023/07/13 05:11:45;;;;;;;19.00;4.60;;;;;;;26.79;58.30;98573.14;67752;1278;1016521;-65
2023/07/13 05:14:48;;;;;;;17.70;4.70;;;;;;;26.57;60.45;98527.23;67732;1278;1016684;-65
2023/07/13 05:17:51;;;;;;;17.50;4.50;;;;;;;26.88;58.27;98533.72;67734;1278;1016000;-65
2023/07/13 05:20:53;;;;;;;16.70;5.10;;;;;;;27.33;57.69;98556.86;67735;1278;1016502;-65
2023/07/13 05:23:55;;;;;;;15.10;4.30;;;;;;;27.61;56.68;98550.58;67828;1278;1016461;-65
2023/07/13 05:26:58;;;;;;;15.70;4.20;;;;;;;27.83;55.31;98525.52;67783;1278;1016386;-66
2023/07/13 05:30:00;;;;;;;18.00;4.10;;;;;;;27.50;57.14;98517.92;67778;1278;1016105;-66
2023/07/13 05:33:03;;;;;;;15.50;4.50;;;;;;;27.54;56.99;98513.17;67735;1278;1016023;-65
2023/07/13 05:36:05;;;;;;;17.60;4.50;;;;;;;28.03;56.19;98510.98;67761;1278;1016120;-65
2023/07/13 05:39:08;;;;;;;14.40;4.50;;;;;;;27.46;59.56;98515.44;67786;1278;1018964;-66
2023/07/13 05:42:11;;;;;;;15.90;4.80;;;;;;;28.72;55.57;98521.39;67754;1278;1016800;-65
2023/07/13 05:45:13;;;;;;;14.00;4.10;;;;;;;28.86;55.28;98541.42;67753;1278;1016377;-65
2023/07/13 05:48:15;;;;;;;14.10;4.00;;;;;;;29.00;54.20;98552.77;67775;1278;1016443;-66
2023/07/13 05:51:18;;;;;;;25.20;4.40;;;;;;;28.72;54.10;98565.20;67773;1278;1016639;-66
2023/07/13 05:54:20;;;;;;;15.60;4.60;;;;;;;28.58;54.32;98563.38;67786;1278;1017367;-67
2023/07/13 05:57:23;;;;;;;15.20;4.60;;;;;;;28.48;54.47;98556.11;67788;1278;1016211;-67
2023/07/13 06:00:25;;;;;;;18.70;4.70;;;;;;;28.68;54.94;98544.13;67757;1278;1016683;-66
2023/07/13 06:03:27;;;;;;;16.20;4.60;;;;;;;28.81;54.59;98525.44;67763;1278;1018605;-66
2023/07/13 06:06:30;;;;;;;15.40;4.50;;;;;;;29.06;53.85;98524.40;67743;1278;1016251;-65
2023/07/13 06:09:32;;;;;;;16.30;4.70;;;;;;;29.18;54.00;98521.92;67710;1278;1016484;-66
2023/07/13 06:12:35;;;;;;;19.10;5.10;;;;;;;29.39;53.54;98525.73;67652;1278;1016405;-66
2023/07/13 06:15:37;;;;;;;18.90;5.10;;;;;;;29.85;53.49;98510.88;67708;1278;1016347;-65
2023/07/13 06:18:39;;;;;;;14.30;4.30;;;;;;;30.17;53.05;98506.64;67644;1278;1016393;-66
2023/07/13 06:21:42;;;;;;;12.80;4.50;;;;;;;30.78;50.65;98501.54;67786;1278;1016421;-65
2023/07/13 06:24:44;;;;;;;12.90;4.00;;;;;;;29.47;54.63;98502.05;67697;1278;1016729;-65
2023/07/13 06:27:47;;;;;;;13.20;4.10;;;;;;;29.96;54.33;98507.31;67646;1278;1016159;-65
2023/07/13 06:30:49;;;;;;;16.90;4.60;;;;;;;29.40;56.84;98504.54;67674;1278;1016268;-64
2023/07/13 06:33:51;;;;;;;15.10;4.30;;;;;;;29.76;56.43;98505.33;67661;1278;1016220;-65
2023/07/13 06:36:54;;;;;;;13.30;4.50;;;;;;;30.38;55.08;98502.81;67760;1278;1016376;-67
2023/07/13 06:39:56;;;;;;;14.80;4.80;;;;;;;30.43;55.88;98501.18;67734;1278;1016493;-65
2023/07/13 06:42:59;;;;;;;13.80;4.40;;;;;;;30.62;55.36;98501.45;67783;1278;1016237;-66
2023/07/13 06:46:01;;;;;;;17.30;4.40;;;;;;;30.62;55.52;98503.77;67786;1278;1017209;-66
2023/07/13 06:49:04;;;;;;;16.40;4.60;;;;;;;30.59;56.19;98503.93;67746;1278;1015937;-66
2023/07/13 06:52:06;;;;;;;14.60;4.70;;;;;;;31.13;54.83;98501.27;67780;1278;1016375;-66
2023/07/13 06:55:08;;;;;;;14.60;4.40;;;;;;;31.23;55.49;98510.35;67764;1278;1016406;-65
2023/07/13 06:58:11;;;;;;;15.90;4.90;;;;;;;31.39;55.44;98508.94;67785;1278;1016835;-65
2023/07/13 07:01:13;;;;;;;18.30;5.10;;;;;;;31.82;55.28;98512.85;67759;1278;1016378;-65
2023/07/13 07:04:15;;;;;;;15.40;4.80;;;;;;;32.36;53.78;98512.35;67738;1278;1016253;-65
2023/07/13 07:07:18;;;;;;;16.30;4.70;;;;;;;32.77;51.94;98511.88;67783;1278;1016426;-66
2023/07/13 07:10:20;;;;;;;13.40;4.30;;;;;;;32.93;50.89;98511.70;67801;1278;1016191;-65
2023/07/13 07:13:23;;;;;;;13.70;4.10;;;;;;;32.95;50.51;98517.45;67786;1278;1017359;-65
2023/07/13 07:16:26;;;;;;;14.10;4.20;;;;;;;33.11;50.22;98519.70;67765;1278;1016140;-66
2023/07/13 07:19:29;;;;;;;11.00;3.80;;;;;;;32.91;51.32;98516.15;67780;1278;1016150;-66
2023/07/13 07:22:31;;;;;;;18.70;4.60;;;;;;;33.25;50.22;98516.08;67811;1278;1016348;-66
2023/07/13 07:25:36;;;;;;;16.80;4.10;;;;;;;33.41;49.62;98515.77;67767;1278;1016226;-66
2023/07/13 07:28:39;;;;;;;15.90;4.40;;;;;;;33.64;50.03;98519.58;67812;1278;1016419;-66
2023/07/13 07:31:41;;;;;;;13.00;4.00;;;;;;;34.06;49.16;98520.17;67784;1278;1018051;-65
2023/07/13 07:34:44;;;;;;;16.10;4.30;;;;;;;34.64;48.56;98532.49;67766;1278;1016295;-66
2023/07/13 07:37:46;;;;;;;13.60;4.10;;;;;;;35.52;46.02;98536.25;67758;1278;1016504;-67
2023/07/13 07:40:49;;;;;;;13.60;3.90;;;;;;;35.79;45.37;98540.11;67809;1278;1016221;-66
2023/07/13 07:43:51;;;;;;;13.20;3.70;;;;;;;35.86;45.05;98549.59;67777;1278;1016165;-66
2023/07/13 07:46:54;;;;;;;13.20;4.00;;;;;;;35.94;44.10;98549.30;67763;1278;1016487;-66
2023/07/13 07:49:56;;;;;;;12.20;3.80;;;;;;;35.96;43.37;98553.23;67765;1278;1016416;-66
2023/07/13 07:52:59;;;;;;;10.80;3.70;;;;;;;35.74;42.46;98567.45;67792;1278;1016449;-65
2023/07/13 07:56:01;;;;;;;9.20;3.50;;;;;;;35.39;40.60;98576.47;67803;1278;1016445;-66
2023/07/13 07:59:04;;;;;;;12.10;3.90;;;;;;;35.17;40.84;98582.29;67785;1278;1016779;-65
2023/07/13 08:02:06;;;;;;;13.30;4.20;;;;;;;35.08;41.08;98579.38;67771;1278;1015998;-65
2023/07/13 08:05:09;;;;;;;15.10;4.30;;;;;;;35.31;40.98;98579.30;67807;1278;1016207;-65
2023/07/13 08:08:11;;;;;;;14.50;4.00;;;;;;;35.23;40.85;98577.20;67821;1278;1016492;-65
2023/07/13 08:11:14;;;;;;;13.30;4.40;;;;;;;35.18;40.03;98582.05;67773;1278;1017111;-67
2023/07/13 08:14:16;;;;;;;14.00;4.50;;;;;;;34.87;40.52;98590.85;67768;1278;1016407;-66
2023/07/13 08:17:19;;;;;;;13.00;4.10;;;;;;;34.12;41.58;98585.85;67796;1278;1016235;-65
2023/07/13 08:20:21;;;;;;;13.50;3.90;;;;;;;34.26;40.85;98588.05;67799;1278;1016430;-66
2023/07/13 08:23:24;;;;;;;15.60;4.40;;;;;;;33.91;42.47;98589.87;67764;1278;1016494;-67
2023/07/13 08:26:26;;;;;;;11.10;4.00;;;;;;;34.18;42.28;98589.94;67736;1278;1018324;-67
2023/07/13 08:29:31;;;;;;;13.40;4.20;;;;;;;34.98;40.50;98587.45;67772;1278;1016468;-66
2023/07/13 08:32:34;;;;;;;15.50;4.50;;;;;;;35.33;40.65;98592.39;67801;1278;1016270;-65
2023/07/13 08:35:36;;;;;;;18.20;5.10;;;;;;;35.20;41.54;98592.33;67794;1278;1016942;-64
2023/07/13 08:38:38;;;;;;;16.40;5.30;;;;;;;34.84;41.97;98598.07;67774;1278;1016144;-66
2023/07/13 08:41:41;;;;;;;14.10;4.80;;;;;;;34.84;41.95;98593.96;67771;1278;1015764;-66
2023/07/13 08:44:43;;;;;;;14.20;4.90;;;;;;;34.66;42.20;98589.00;67821;1278;1018659;-66
2023/07/13 08:47:46;;;;;;;15.70;5.50;;;;;;;34.84;41.90;98589.46;67805;1278;1016457;-66
2023/07/13 08:50:48;;;;;;;17.90;5.70;;;;;;;34.89;41.70;98587.98;67807;1278;1016748;-65
2023/07/13 08:53:50;;;;;;;15.10;5.00;;;;;;;34.82;41.52;98584.98;67764;1278;1016766;-66
2023/07/13 08:56:53;;;;;;;13.60;5.10;;;;;;;33.73;43.29;98584.73;67742;1278;1017726;-66
2023/07/13 08:59:56;;;;;;;13.80;5.00;;;;;;;33.91;43.17;98582.18;67805;1278;1016410;-66
2023/07/13 09:02:58;;;;;;;18.40;5.20;;;;;;;33.34;44.88;98583.67;67788;1278;1016434;-66
2023/07/13 09:06:02;;;;;;;13.80;5.00;;;;;;;33.28;44.45;98592.48;67776;1278;1016432;-65
2023/07/13 09:09:04;;;;;;;13.90;5.00;;;;;;;32.56;44.56;98598.16;67757;1278;1015983;-65
2023/07/13 09:12:07;;;;;;;16.20;5.00;;;;;;;32.60;43.44;98591.83;67772;1278;1016531;-67
2023/07/13 09:15:09;;;;;;;15.30;5.00;;;;;;;33.08;42.33;98602.42;67771;1278;1016795;-66
2023/07/13 09:18:11;;;;;;;16.70;5.50;;;;;;;32.98;43.25;98599.04;67771;1278;1016105;-65
2023/07/13 09:21:14;;;;;;;16.80;5.40;;;;;;;32.72;43.50;98599.40;67819;1278;1016189;-66
2023/07/13 09:24:16;;;;;;;15.80;5.30;;;;;;;32.60;43.49;98594.05;67816;1278;1016426;-67
2023/07/13 09:27:19;;;;;;;15.40;4.90;;;;;;;32.78;43.32;98589.95;67780;1278;1016480;-66
2023/07/13 09:30:22;;;;;;;15.50;4.90;;;;;;;32.88;43.54;98581.77;67773;1278;1016396;-66
2023/07/13 09:33:28;;;;;;;14.20;5.00;;;;;;;33.07;42.75;98581.54;67795;1278;1016447;-67
2023/07/13 09:36:31;;;;;;;16.30;5.00;;;;;;;33.12;42.88;98578.41;67798;1278;1017638;-66
2023/07/13 09:39:35;;;;;;;13.60;5.00;;;;;;;33.30;42.86;98577.98;67770;1278;1016490;-65
2023/07/13 09:42:38;;;;;;;16.50;5.50;;;;;;;33.40;42.50;98572.50;67764;1278;1016259;-67
2023/07/13 09:45:40;;;;;;;15.20;5.20;;;;;;;32.79;44.60;98578.02;67790;1278;1017782;-67
2023/07/13 09:48:42;;;;;;;16.60;5.10;;;;;;;32.96;44.47;98579.40;67802;1278;1017106;-66
2023/07/13 09:51:46;;;;;;;17.70;5.50;;;;;;;32.73;45.29;98580.07;67775;1278;1016363;-66
2023/07/13 09:54:48;;;;;;;17.00;5.40;;;;;;;32.75;45.61;98576.98;67813;1278;1019161;-65
2023/07/13 09:57:51;;;;;;;14.90;5.60;;;;;;;32.61;46.72;98581.59;67816;1278;1018895;-67
2023/07/13 10:00:54;;;;;;;16.20;6.00;;;;;;;32.44;47.35;98577.80;67801;1278;1016494;-67
2023/07/13 10:03:56;;;;;;;16.20;5.50;;;;;;;32.21;48.48;98580.77;67830;1278;1016692;-67
2023/07/13 10:06:59;;;;;;;21.90;7.10;;;;;;;31.03;52.49;98590.03;67815;1278;1016726;-66
2023/07/13 10:10:02;;;;;;;20.40;7.00;;;;;;;30.94;52.49;98590.05;67825;1278;1016390;-66
2023/07/13 10:13:05;;;;;;;18.10;6.20;;;;;;;30.64;54.09;98592.73;67800;1278;1018921;-65
2023/07/13 10:16:08;;;;;;;21.50;6.70;;;;;;;30.67;53.93;98592.77;67788;1278;1016416;-66
2023/07/13 10:19:10;;;;;;;18.20;6.30;;;;;;;30.97;52.84;98595.35;67785;1278;1016273;-67
2023/07/13 10:22:13;;;;;;;18.10;5.40;;;;;;;31.10;52.88;98595.77;67815;1278;1017066;-66
2023/07/13 10:25:15;;;;;;;16.40;5.90;;;;;;;31.01;53.41;98595.20;67802;1278;1016327;-67
2023/07/13 10:28:18;;;;;;;17.00;5.70;;;;;;;30.97;51.89;98602.14;67771;1278;1017008;-65
2023/07/13 10:31:20;;;;;;;16.30;5.70;;;;;;;31.11;49.77;98606.70;67784;1278;1017969;-65
2023/07/13 10:34:23;;;;;;;15.70;5.50;;;;;;;31.12;48.88;98605.59;67844;1278;1016440;-66
2023/07/13 10:37:25;;;;;;;16.80;5.90;;;;;;;31.13;49.51;98610.73;67809;1278;1016204;-67
2023/07/13 10:40:29;;;;;;;19.10;6.20;;;;;;;31.19;49.47;98611.84;67792;1278;1016500;-65
2023/07/13 10:43:32;;;;;;;17.40;6.60;;;;;;;31.10;49.50;98621.31;67742;1278;1016567;-65
2023/07/13 10:46:34;;;;;;;19.10;6.20;;;;;;;31.17;49.84;98617.71;67779;1278;1016447;-65
2023/07/13 10:49:37;;;;;;;18.60;6.30;;;;;;;31.06;50.39;98621.21;67809;1278;1016419;-67
2023/07/13 10:52:39;;;;;;;17.80;6.20;;;;;;;31.06;50.67;98629.76;67798;1278;1018699;-66
2023/07/13 10:55:42;;;;;;;15.40;5.40;;;;;;;30.98;50.72;98639.52;67758;1278;1016432;-67
2023/07/13 10:58:45;;;;;;;18.90;5.90;;;;;;;30.62;51.14;98642.83;67740;1278;1016463;-67
2023/07/13 11:01:48;;;;;;;15.60;4.90;;;;;;;30.25;50.27;98651.05;67818;1278;1016879;-67
2023/07/13 11:04:50;;;;;;;18.10;5.30;;;;;;;29.86;49.67;98659.62;67807;1278;1016489;-67
2023/07/13 11:07:53;;;;;;;15.70;4.70;;;;;;;29.78;50.07;98660.05;67802;1278;1016372;-67
2023/07/13 11:10:55;;;;;;;13.90;4.30;;;;;;;29.50;50.67;98669.14;67827;1278;1016330;-66
2023/07/13 11:13:58;;;;;;;12.70;3.60;;;;;;;29.29;47.63;98682.09;67844;1278;1016831;-67
2023/07/13 11:17:01;;;;;;;12.10;3.60;;;;;;;29.05;49.00;98687.20;67786;1278;1016411;-68
2023/07/13 11:20:03;;;;;;;16.90;4.50;;;;;;;28.60;51.45;98692.94;67847;1278;1016529;-68
2023/07/13 11:23:06;;;;;;;19.30;4.30;;;;;;;28.33;51.27;98714.46;67789;1278;1016272;-68
2023/07/13 11:26:08;;;;;;;10.30;3.50;;;;;;;27.58;52.61;98722.23;67794;1278;1016493;-67
2023/07/13 11:29:11;;;;;;;11.50;3.40;;;;;;;27.55;52.21;98732.98;67796;1278;1016479;-67
2023/07/13 11:32:13;;;;;;;24.90;4.40;;;;;;;27.18;52.50;98744.50;67797;1278;1017335;-69
2023/07/13 11:35:15;;;;;;;12.20;3.20;;;;;;;26.78;53.08;98739.20;67810;1278;1016038;-69
2023/07/13 11:38:18;;;;;;;14.40;3.50;;;;;;;26.46;54.83;98751.95;67815;1278;1016386;-67
2023/07/13 11:41:20;;;;;;;17.10;4.20;;;;;;;25.68;57.98;98747.09;67812;1278;1016461;-69
2023/07/13 11:44:23;;;;;;;21.20;4.60;;;;;;;25.42;58.93;98755.25;67751;1278;1016456;-69
2023/07/13 11:47:25;;;;;;;14.90;3.30;;;;;;;25.55;58.39;98761.44;67757;1278;1015975;-68
2023/07/13 11:50:28;;;;;;;16.30;4.20;;;;;;;25.34;59.03;98775.76;67803;1278;1016471;-68
2023/07/13 11:53:30;;;;;;;22.90;5.20;;;;;;;25.20;60.11;98768.00;67797;1278;1016281;-69
2023/07/13 11:56:34;;;;;;;11.20;3.00;;;;;;;25.11;60.15;98753.57;67770;1278;1016358;-69
2023/07/13 11:59:36;;;;;;;11.60;3.10;;;;;;;25.24;58.78;98739.06;67811;1270;1016423;-67
2023/07/13 12:02:39;;;;;;;6.90;2.40;;;;;;;25.67;56.63;98729.48;67770;1278;1016102;-68
2023/07/13 12:05:41;;;;;;;10.30;2.90;;;;;;;25.40;58.11;98726.33;67770;1278;1016329;-67
2023/07/13 12:08:44;;;;;;;;;;;;;;;25.55;57.76;98709.02;67792;1278;1016389;-68
2023/07/13 12:11:46;;;;;;;9.80;2.70;;;;;;;25.61;57.75;98683.89;67815;1278;1016474;-68
2023/07/13 12:14:48;;;;;;;;;;;;;;;25.80;56.57;98690.92;67829;1278;1016384;-69
2023/07/13 12:17:51;;;;;;;7.30;2.50;;;;;;;26.13;55.22;98710.27;67759;1278;1016314;-68
2023/07/13 12:20:53;;;;;;;;;;;;;;;26.16;55.48;98707.65;67783;1278;1016661;-69
2023/07/13 12:23:56;;;;;;;7.10;2.20;;;;;;;26.22;55.55;98703.67;67791;1278;1016478;-68
2023/07/13 12:26:59;;;;;;;;;;;;;;;26.45;54.61;98702.20;67819;1278;1016156;-69
2023/07/13 12:30:01;;;;;;;10.70;2.90;;;;;;;26.64;54.27;98685.70;67801;1278;1016100;-68
2023/07/13 12:33:04;;;;;;;10.40;2.80;;;;;;;27.18;53.21;98674.77;67791;1278;1016039;-68
2023/07/13 12:36:09;;;;;;;12.00;3.00;;;;;;;27.25;53.18;98674.15;67815;1278;1018195;-68
2023/07/13 12:39:11;;;;;;;12.90;3.10;;;;;;;27.52;52.89;98662.56;67748;1278;1016409;-68
2023/07/13 12:42:14;;;;;;;10.90;3.00;;;;;;;27.85;52.25;98649.77;67781;1278;1018593;-68
2023/07/13 12:45:16;;;;;;;10.70;3.00;;;;;;;27.42;53.35;98648.42;67800;1278;1019075;-68
2023/07/13 12:48:18;;;;;;;12.00;2.70;;;;;;;27.31;54.00;98648.61;67819;1278;1016920;-67
2023/07/13 12:51:21;;;;;;;10.10;3.30;;;;;;;27.38;54.02;98635.66;67812;1278;1016413;-67
2023/07/13 12:54:23;;;;;;;10.60;3.00;;;;;;;27.56;53.81;98629.65;67755;1278;1019468;-67
2023/07/13 12:57:26;;;;;;;9.30;2.70;;;;;;;27.65;53.98;98621.52;67789;1278;1016442;-67
2023/07/13 13:00:29;;;;;;;11.40;2.90;;;;;;;27.69;54.15;98610.48;67802;1278;1016374;-67
2023/07/13 13:03:32;;;;;;;7.40;2.60;;;;;;;28.00;53.62;98606.66;67795;1278;1016963;-67
2023/07/13 13:06:37;;;;;;;7.20;2.60;;;;;;;28.41;53.01;98609.92;67835;1278;1016357;-67
2023/07/13 13:09:39;;;;;;;9.60;2.80;;;;;;;28.42;53.65;98612.33;67752;1278;1016448;-66
2023/07/13 13:12:42;;;;;;;11.40;3.00;;;;;;;28.17;54.78;98611.10;67772;1278;1016256;-67
2023/07/13 13:15:44;;;;;;;10.20;3.50;;;;;;;28.51;53.36;98627.94;67835;1278;1016438;-67
2023/07/13 13:18:47;;;;;;;6.80;2.50;;;;;;;28.60;51.89;98671.59;67821;1278;1016234;-67
2023/07/13 13:21:52;;;;;;;10.90;2.90;;;;;;;27.57;55.33;98701.08;67779;1278;1016179;-67
2023/07/13 13:24:54;;;;;;;11.00;2.90;;;;;;;27.17;56.11;98705.07;67834;1278;1016552;-67
2023/07/13 13:27:57;;;;;;;8.20;2.60;;;;;;;27.37;55.70;98708.48;67846;1278;1017624;-67
2023/07/13 13:30:59;;;;;;;12.30;2.90;;;;;;;27.14;56.59;98720.52;67795;1278;1016458;-67
2023/07/13 13:34:02;;;;;;;19.40;5.10;;;;;;;27.26;56.90;98735.29;67756;1278;1016310;-67
2023/07/13 13:37:04;;;;;;;17.20;4.30;;;;;;;27.06;57.27;98755.27;67808;1278;1016379;-67
2023/07/13 13:40:07;;;;;;;11.70;3.50;;;;;;;26.83;57.81;98764.00;67806;1278;1016441;-67
2023/07/13 13:43:09;;;;;;;20.70;6.50;;;;;;;26.67;58.51;98760.29;67834;1278;1016434;-67
2023/07/13 13:46:12;;;;;;;23.60;7.20;;;;;;;26.81;58.21;98765.73;67792;1278;1016228;-67
2023/07/13 13:49:14;;;;;;;21.40;6.70;;;;;;;27.04;56.98;98769.04;67784;1278;1016163;-67